Time;durP1;ratioP1;P1;durP2;ratioP2;P2;SDS_P1;SDS_P2;PMS_P1;PMS_P2;Temp;Humidity;BMP_temperature;BMP_pressure;BME280_temperature;BME280_humidity;BME280_pressure;Samples;Min_cycle;Max_cycle;Signal;HPM_P1;HPM_P2
2020/12/03 00:01:02;;;;;;;5.97;5.13;;;20.00;48.90;;;;;;5017163;28;20034;-48
2020/12/03 00:03:45;;;;;;;6.32;5.10;;;20.00;48.90;;;;;;5016806;28;20022;-48
2020/12/03 00:06:26;;;;;;;7.00;5.88;;;19.90;48.90;;;;;;5016917;28;20034;-49
2020/12/03 00:08:55;;;;;;;5.97;5.38;;;19.90;48.80;;;;;;5017321;28;20065;-48
2020/12/03 00:11:23;;;;;;;6.88;5.75;;;19.90;48.90;;;;;;5016955;28;20026;-47
2020/12/03 00:13:49;;;;;;;7.47;5.72;;;19.90;49.50;;;;;;5016856;28;20385;-48
2020/12/03 00:16:15;;;;;;;6.30;5.70;;;19.80;49.50;;;;;;5017188;28;20084;-46
2020/12/03 00:18:40;;;;;;;7.82;6.13;;;19.90;48.90;;;;;;5017100;28;20049;-48
2020/12/03 00:21:10;;;;;;;7.45;5.80;;;19.80;48.90;;;;;;5016664;28;20360;-47
2020/12/03 00:23:38;;;;;;;7.38;5.97;;;19.80;48.90;;;;;;5016426;28;20361;-47
2020/12/03 00:26:06;;;;;;;6.32;4.95;;;19.80;48.90;;;;;;5017166;28;20021;-49
2020/12/03 00:28:37;;;;;;;5.90;4.88;;;19.80;48.90;;;;;;5017015;28;20329;-48
2020/12/03 00:31:05;;;;;;;7.28;6.00;;;19.80;48.90;;;;;;5016665;28;20054;-48
2020/12/03 00:33:30;;;;;;;7.85;5.88;;;19.70;48.90;;;;;;5016543;28;20034;-46
2020/12/03 00:35:56;;;;;;;7.60;5.95;;;19.70;48.80;;;;;;5016624;28;20100;-46
2020/12/03 00:38:23;;;;;;;6.95;5.47;;;19.70;48.90;;;;;;5016230;28;20052;-46
2020/12/03 00:40:49;;;;;;;6.65;5.60;;;19.70;48.90;;;;;;5016705;28;20065;-47
2020/12/03 00:43:16;;;;;;;6.50;5.72;;;19.70;48.90;;;;;;5016440;28;20018;-47
2020/12/03 00:45:42;;;;;;;7.20;5.72;;;19.70;48.90;;;;;;5016303;28;20030;-48
2020/12/03 00:48:09;;;;;;;6.85;5.10;;;19.70;48.90;;;;;;5018397;28;20045;-51
2020/12/03 00:50:35;;;;;;;6.72;5.78;;;19.70;48.90;;;;;;5015765;28;20041;-46
2020/12/03 00:53:00;;;;;;;6.68;5.90;;;19.60;48.90;;;;;;5016360;28;20052;-46
2020/12/03 00:55:26;;;;;;;7.18;6.45;;;19.60;48.90;;;;;;5016548;28;20432;-50
2020/12/03 00:57:51;;;;;;;7.32;5.78;;;19.60;48.90;;;;;;5016552;28;20440;-52
2020/12/03 01:00:21;;;;;;;6.30;5.53;;;19.60;48.90;;;;;;5015820;28;20100;-52
2020/12/03 01:02:47;;;;;;;6.47;5.25;;;19.60;48.90;;;;;;5016101;28;20108;-53
2020/12/03 01:05:14;;;;;;;6.15;5.43;;;19.60;48.90;;;;;;5016101;28;20037;-48
2020/12/03 01:07:39;;;;;;;7.57;5.80;;;19.50;48.80;;;;;;5016156;28;20036;-49
2020/12/03 01:10:11;;;;;;;7.32;6.35;;;19.50;48.80;;;;;;5015893;28;20037;-51
2020/12/03 01:12:36;;;;;;;6.72;6.03;;;19.50;48.90;;;;;;5015961;28;20025;-47
2020/12/03 01:15:03;;;;;;;6.07;5.47;;;19.50;48.80;;;;;;5015989;28;20093;-47
2020/12/03 01:17:29;;;;;;;6.20;5.60;;;19.50;48.90;;;;;;5015929;28;20018;-47
2020/12/03 01:19:54;;;;;;;6.47;5.45;;;19.50;48.90;;;;;;5015449;28;20080;-48
2020/12/03 01:22:20;;;;;;;7.03;5.65;;;19.50;48.90;;;;;;5015762;28;20062;-48
2020/12/03 01:24:46;;;;;;;7.28;6.10;;;19.50;48.90;;;;;;5015822;28;20022;-49
2020/12/03 01:27:11;;;;;;;6.40;5.80;;;19.40;48.90;;;;;;5015648;28;20087;-48
2020/12/03 01:29:39;;;;;;;7.85;6.32;;;19.40;48.90;;;;;;5015271;28;20506;-47
2020/12/03 01:32:04;;;;;;;6.85;6.15;;;19.40;48.90;;;;;;5015634;28;20018;-47
2020/12/03 01:34:30;;;;;;;6.80;6.10;;;19.40;48.90;;;;;;5015120;28;20037;-47
2020/12/03 01:36:56;;;;;;;6.28;5.63;;;19.40;48.90;;;;;;5015254;28;20026;-47
2020/12/03 01:39:21;;;;;;;7.57;6.22;;;19.40;48.90;;;;;;5015666;28;20105;-46
2020/12/03 01:41:47;;;;;;;6.70;5.85;;;19.40;48.90;;;;;;5015620;28;20022;-49
2020/12/03 01:44:14;;;;;;;6.53;5.93;;;19.40;48.90;;;;;;5015283;28;20113;-51
2020/12/03 01:46:41;;;;;;;7.25;6.10;;;19.30;48.90;;;;;;5015519;28;20033;-49
2020/12/03 01:49:26;;;;;;;6.55;5.90;;;19.30;48.90;;;;;;5014962;28;20057;-50
2020/12/03 01:51:55;;;;;;;6.70;5.85;;;19.40;48.90;;;;;;5015270;28;20033;-50
2020/12/03 01:54:21;;;;;;;7.75;6.13;;;19.30;48.90;;;;;;5014959;28;20456;-47
2020/12/03 01:57:24;;;;;;;6.82;6.10;;;19.30;48.90;;;;;;5015446;28;20061;-51
2020/12/03 02:00:12;;;;;;;6.13;5.47;;;19.30;48.90;;;;;;4993723;28;20037;-47
2020/12/03 02:02:41;;;;;;;9.07;6.47;;;19.30;48.90;;;;;;5015471;28;20026;-50
2020/12/03 02:05:11;;;;;;;6.65;6.00;;;19.30;48.90;;;;;;5015325;28;20028;-52
2020/12/03 02:07:36;;;;;;;6.55;5.85;;;19.30;48.90;;;;;;5014513;28;20034;-50
2020/12/03 02:10:02;;;;;;;6.60;6.00;;;19.30;49.00;;;;;;5015030;28;20038;-50
2020/12/03 02:12:28;;;;;;;6.20;5.55;;;19.30;49.00;;;;;;5014316;28;20022;-47
2020/12/03 02:14:53;;;;;;;6.32;5.60;;;19.20;48.90;;;;;;5015437;28;20410;-47
2020/12/03 02:17:19;;;;;;;7.00;6.30;;;19.20;48.90;;;;;;5015009;28;20057;-51
2020/12/03 02:19:52;;;;;;;7.13;6.05;;;19.20;48.90;;;;;;5014824;28;20504;-47
2020/12/03 02:22:18;;;;;;;6.50;5.50;;;19.20;48.90;;;;;;5014745;28;20065;-49
2020/12/03 02:24:43;;;;;;;7.22;5.88;;;19.20;49.00;;;;;;5014595;28;20053;-50
2020/12/03 02:27:12;;;;;;;6.40;5.65;;;19.20;49.00;;;;;;5015602;28;20077;-46
2020/12/03 02:29:38;;;;;;;6.45;5.85;;;19.20;49.00;;;;;;4997559;28;20402;-47
2020/12/03 02:32:03;;;;;;;6.80;5.97;;;19.20;48.90;;;;;;5015173;28;20071;-47
2020/12/03 02:34:29;;;;;;;6.93;6.07;;;19.20;49.00;;;;;;5014821;28;20361;-50
2020/12/03 02:36:57;;;;;;;6.30;5.50;;;19.10;49.00;;;;;;5014668;28;20087;-46
2020/12/03 02:39:24;;;;;;;6.88;5.88;;;19.10;48.90;;;;;;5014535;28;20353;-52
2020/12/03 02:41:50;;;;;;;6.15;5.45;;;19.10;48.90;;;;;;5014797;28;20364;-51
2020/12/03 02:44:16;;;;;;;6.28;5.38;;;19.10;48.90;;;;;;5014996;28;20026;-49
2020/12/03 02:46:41;;;;;;;6.60;5.90;;;19.10;49.10;;;;;;5014864;28;20036;-47
2020/12/03 02:49:07;;;;;;;5.65;5.13;;;19.10;48.90;;;;;;5014946;28;20054;-50
2020/12/03 02:51:33;;;;;;;7.15;6.00;;;19.10;49.00;;;;;;5014765;28;20084;-51
2020/12/03 02:53:58;;;;;;;5.90;5.28;;;19.10;48.90;;;;;;5015153;28;20022;-45
2020/12/03 02:56:24;;;;;;;6.13;5.53;;;19.10;49.00;;;;;;5014608;28;20038;-47
2020/12/03 02:58:49;;;;;;;6.88;5.95;;;19.10;48.90;;;;;;5014715;28;20403;-48
2020/12/03 03:01:15;;;;;;;6.25;5.65;;;19.00;49.00;;;;;;5014374;28;20069;-46
2020/12/03 03:03:40;;;;;;;6.65;5.53;;;19.00;48.90;;;;;;5014710;28;20022;-49
2020/12/03 03:06:06;;;;;;;5.55;5.00;;;19.00;48.90;;;;;;5014079;28;20145;-47
2020/12/03 03:08:32;;;;;;;5.93;4.95;;;19.00;48.90;;;;;;5014597;28;20026;-46
2020/12/03 03:10:57;;;;;;;5.80;5.20;;;19.00;48.90;;;;;;5014170;28;20460;-50
2020/12/03 03:13:23;;;;;;;5.43;4.93;;;19.00;48.90;;;;;;5014584;28;20030;-51
2020/12/03 03:15:48;;;;;;;6.15;5.40;;;19.00;48.90;;;;;;5014498;28;20438;-48
2020/12/03 03:18:14;;;;;;;6.32;5.00;;;19.00;49.00;;;;;;5014527;28;20057;-48
2020/12/03 03:20:40;;;;;;;5.68;5.10;;;19.00;48.90;;;;;;5014309;28;20044;-47
2020/12/03 03:23:05;;;;;;;5.95;5.32;;;19.00;48.90;;;;;;5014668;28;20030;-51
2020/12/03 03:25:31;;;;;;;7.03;5.35;;;19.00;48.90;;;;;;5018325;28;20026;-52
2020/12/03 03:27:57;;;;;;;5.97;5.25;;;19.00;48.90;;;;;;5017972;28;20302;-49
2020/12/03 03:30:22;;;;;;;6.20;5.13;;;18.90;48.90;;;;;;5017951;28;20136;-48
2020/12/03 03:32:48;;;;;;;5.15;4.65;;;18.90;48.90;;;;;;5017742;28;20026;-46
2020/12/03 03:35:19;;;;;;;5.78;4.63;;;18.90;48.90;;;;;;5017410;28;20105;-49
2020/12/03 03:37:45;;;;;;;5.47;4.90;;;18.90;48.90;;;;;;5017495;28;20084;-47
2020/12/03 03:40:10;;;;;;;6.05;5.00;;;18.90;48.90;;;;;;5017574;28;20406;-47
2020/12/03 03:42:36;;;;;;;5.18;4.68;;;18.90;48.90;;;;;;5017798;28;20053;-47
2020/12/03 03:45:04;;;;;;;5.80;4.95;;;18.90;48.90;;;;;;5017747;28;20054;-49
2020/12/03 03:47:29;;;;;;;5.57;4.88;;;18.90;48.90;;;;;;5017709;28;20026;-49
2020/12/03 03:49:55;;;;;;;5.38;4.85;;;18.90;48.90;;;;;;5017677;28;20108;-46
2020/12/03 03:52:20;;;;;;;6.47;4.75;;;18.90;48.90;;;;;;5017127;28;20037;-47
2020/12/03 03:54:46;;;;;;;5.65;4.97;;;18.80;48.90;;;;;;5017732;28;20033;-47
2020/12/03 03:57:11;;;;;;;5.53;4.97;;;18.80;48.90;;;;;;5017236;28;20022;-46
2020/12/03 03:59:37;;;;;;;6.00;5.00;;;18.80;48.90;;;;;;5017544;28;20030;-46
2020/12/03 04:02:02;;;;;;;7.10;4.53;;;18.80;48.90;;;;;;5017307;28;20033;-47
2020/12/03 04:04:28;;;;;;;5.72;4.90;;;18.80;48.80;;;;;;5017146;28;20030;-48
2020/12/03 04:06:53;;;;;;;6.43;4.97;;;18.80;48.90;;;;;;5017064;28;20026;-52
2020/12/03 04:09:19;;;;;;;5.05;4.55;;;18.80;48.80;;;;;;5017028;28;20372;-51
2020/12/03 04:11:44;;;;;;;5.15;4.30;;;18.80;48.90;;;;;;5016952;28;20053;-51
2020/12/03 04:14:11;;;;;;;4.95;4.45;;;18.80;48.90;;;;;;5016726;28;20116;-46
2020/12/03 04:16:36;;;;;;;5.50;4.93;;;18.90;48.90;;;;;;5017156;28;20033;-48
2020/12/03 04:19:02;;;;;;;4.10;3.67;;;18.90;48.90;;;;;;5016871;28;20503;-48
2020/12/03 04:21:28;;;;;;;4.82;4.32;;;18.90;48.90;;;;;;5016710;28;20034;-49
2020/12/03 04:23:53;;;;;;;5.05;4.03;;;18.90;48.80;;;;;;5016698;28;20084;-48
2020/12/03 04:26:19;;;;;;;3.75;3.42;;;18.90;48.80;;;;;;5016779;28;20428;-47
2020/12/03 04:28:44;;;;;;;5.13;4.00;;;18.90;49.40;;;;;;5016685;28;20028;-46
2020/12/03 04:31:10;;;;;;;4.25;3.58;;;18.90;48.70;;;;;;5016860;28;20084;-48
2020/12/03 04:33:35;;;;;;;4.43;3.90;;;18.90;48.70;;;;;;5016551;28;20365;-51
2020/12/03 04:36:01;;;;;;;4.82;3.97;;;18.90;48.70;;;;;;5015847;28;20025;-48
2020/12/03 04:38:27;;;;;;;4.93;4.35;;;18.90;48.60;;;;;;5016650;28;20038;-47
2020/12/03 04:40:52;;;;;;;5.10;3.88;;;18.90;48.60;;;;;;5016536;28;20040;-48
2020/12/03 04:43:48;;;;;;;5.43;4.40;;;18.90;48.60;;;;;;5016736;28;20026;-51
2020/12/03 04:46:35;;;;;;;5.30;4.03;;;18.90;48.60;;;;;;5016419;28;20033;-49
2020/12/03 04:49:25;;;;;;;5.25;3.95;;;18.90;48.60;;;;;;5016377;28;20133;-49
2020/12/03 04:52:08;;;;;;;6.63;4.15;;;18.90;48.60;;;;;;5016452;28;20064;-48
2020/12/03 04:54:52;;;;;;;4.95;4.28;;;18.90;48.50;;;;;;5016379;28;20041;-46
2020/12/03 04:57:23;;;;;;;;;;;18.90;48.50;;;;;;5016671;28;20032;-53
2020/12/03 05:00:01;;;;;;;4.82;3.78;;;18.90;48.50;;;;;;5015865;28;20228;-49
2020/12/03 05:02:52;;;;;;;4.03;3.60;;;18.90;48.50;;;;;;5016284;28;20022;-48
2020/12/03 05:05:34;;;;;;;4.38;3.25;;;18.80;48.60;;;;;;5016269;28;20104;-49
2020/12/03 05:08:09;;;;;;;4.60;3.75;;;18.80;48.60;;;;;;5016078;28;20429;-51
2020/12/03 05:10:46;;;;;;;5.05;3.85;;;18.80;48.70;;;;;;4998639;28;20030;-47
2020/12/03 05:13:26;;;;;;;4.88;3.80;;;18.80;48.70;;;;;;5015968;28;20022;-46
2020/12/03 05:15:58;;;;;;;5.70;3.63;;;18.80;48.70;;;;;;5015861;28;20030;-49
2020/12/03 05:18:44;;;;;;;3.63;3.30;;;18.80;48.70;;;;;;5016403;28;20025;-46
2020/12/03 05:21:15;;;;;;;6.18;3.63;;;18.80;48.70;;;;;;5015980;28;20022;-45
2020/12/03 05:23:41;;;;;;;3.70;3.22;;;18.80;48.70;;;;;;5015588;28;20026;-48
2020/12/03 05:26:20;;;;;;;3.83;3.13;;;18.80;48.70;;;;;;5024631;28;20018;-47
2020/12/03 05:28:54;;;;;;;4.45;3.80;;;18.80;48.70;;;;;;5029942;28;20022;-46
2020/12/03 05:31:42;;;;;;;5.07;3.65;;;18.80;48.70;;;;;;5035467;28;20025;-46
2020/12/03 05:34:15;;;;;;;4.53;3.50;;;18.80;48.70;;;;;;5034990;28;20021;-50
2020/12/03 05:36:56;;;;;;;3.58;3.17;;;18.70;48.70;;;;;;5035411;28;20055;-49
2020/12/03 05:39:29;;;;;;;4.15;3.35;;;18.70;48.70;;;;;;5034925;28;20104;-51
2020/12/03 05:42:02;;;;;;;4.23;3.57;;;18.70;48.70;;;;;;5035068;28;20459;-47
2020/12/03 05:44:41;;;;;;;4.30;3.63;;;18.70;48.70;;;;;;5035270;28;20273;-48
2020/12/03 05:47:24;;;;;;;4.57;3.85;;;18.70;48.70;;;;;;5034049;28;20424;-49
2020/12/03 05:49:55;;;;;;;7.80;3.78;;;18.70;48.80;;;;;;5035258;28;20045;-45
2020/12/03 05:52:24;;;;;;;7.00;3.95;;;18.60;48.80;;;;;;5035339;28;20034;-48
2020/12/03 05:55:05;;;;;;;5.03;4.20;;;18.70;48.90;;;;;;5035054;28;20025;-49
2020/12/03 05:57:43;;;;;;;9.05;4.38;;;18.70;49.00;;;;;;5034337;28;20371;-47
2020/12/03 06:00:12;;;;;;;5.72;3.65;;;18.70;49.10;;;;;;5034676;28;20075;-49
2020/12/03 06:02:57;;;;;;;6.78;4.30;;;18.60;49.10;;;;;;5034554;28;20029;-46
2020/12/03 06:05:42;;;;;;;8.70;3.83;;;18.70;49.30;;;;;;5034984;28;20099;-53
2020/12/03 06:08:32;;;;;;;5.32;4.03;;;18.70;49.30;;;;;;5034801;28;20104;-48
2020/12/03 06:11:48;;;;;;;4.15;3.47;;;18.60;49.40;;;;;;5034806;28;20059;-46
2020/12/03 06:14:31;;;;;;;8.10;3.70;;;18.70;49.50;;;;;;4992983;28;20356;-52
2020/12/03 06:17:19;;;;;;;9.13;3.60;;;18.70;49.70;;;;;;5035272;28;20045;-51
2020/12/03 06:20:12;;;;;;;7.20;3.83;;;18.70;49.70;;;;;;5035170;28;20032;-49
2020/12/03 06:23:08;;;;;;;8.07;4.35;;;18.60;49.60;;;;;;5034674;28;20159;-52
2020/12/03 06:25:56;;;;;;;7.60;3.47;;;18.60;49.60;;;;;;5034633;28;20025;-53
2020/12/03 06:28:42;;;;;;;6.15;3.42;;;18.60;49.60;;;;;;5034803;28;20029;-50
2020/12/03 06:31:20;;;;;;;8.20;3.72;;;18.60;49.70;;;;;;5034609;28;20113;-55
2020/12/03 06:33:58;;;;;;;4.70;2.97;;;18.60;49.80;;;;;;5034758;28;20040;-50
2020/12/03 06:36:38;;;;;;;9.05;3.13;;;18.50;49.80;;;;;;5034858;28;20036;-49
2020/12/03 06:39:30;;;;;;;6.50;3.20;;;18.60;49.80;;;;;;5034220;28;20037;-47
2020/12/03 06:42:14;;;;;;;13.82;3.65;;;18.60;49.90;;;;;;5034412;28;20095;-54
2020/12/03 06:44:42;;;;;;;4.05;2.72;;;18.60;49.90;;;;;;5034364;28;20029;-52
2020/12/03 06:47:30;;;;;;;4.32;2.88;;;18.60;49.90;;;;;;5033952;28;20022;-50
2020/12/03 06:50:21;;;;;;;9.90;2.72;;;18.70;49.90;;;;;;5034689;28;20107;-54
2020/12/03 06:53:06;;;;;;;3.08;2.33;;;18.70;49.80;;;;;;5033171;28;20038;-50
2020/12/03 06:56:12;;;;;;;4.22;2.33;;;18.70;49.80;;;;;;5033953;28;20444;-53
2020/12/03 06:58:40;;;;;;;4.82;2.63;;;18.80;49.90;;;;;;5035152;28;20029;-46
2020/12/03 07:01:38;;;;;;;5.43;2.95;;;18.80;49.90;;;;;;5038439;28;20104;-53
2020/12/03 07:04:41;;;;;;;5.68;2.50;;;18.80;49.90;;;;;;5038020;28;20071;-48
2020/12/03 07:07:18;;;;;;;6.90;2.20;;;18.90;50.00;;;;;;5037958;28;20030;-54
2020/12/03 07:10:02;;;;;;;6.63;2.65;;;18.90;49.90;;;;;;5038091;28;20325;-53
2020/12/03 07:13:02;;;;;;;3.78;2.40;;;18.90;50.00;;;;;;5037823;28;20053;-50
2020/12/03 07:15:30;;;;;;;8.68;2.30;;;19.00;50.00;;;;;;5037935;28;20057;-49
2020/12/03 07:18:28;;;;;;;4.60;2.47;;;19.00;50.00;;;;;;5038038;28;20037;-50
2020/12/03 07:21:51;;;;;;;3.97;2.05;;;19.00;49.90;;;;;;5037931;28;20029;-51
2020/12/03 07:24:23;;;;;;;2.33;1.85;;;19.10;50.00;;;;;;4938293;29;20064;-54
2020/12/03 07:27:29;;;;;;;7.35;2.15;;;19.10;50.00;;;;;;4938218;29;20031;-47
2020/12/03 07:30:01;;;;;;;3.40;2.50;;;19.10;50.00;;;;;;5016207;28;20096;-51
2020/12/03 07:32:49;;;;;;;4.72;2.10;;;19.10;50.00;;;;;;5037180;28;20433;-51
2020/12/03 07:35:51;;;;;;;10.38;2.72;;;19.10;50.00;;;;;;5019836;28;20403;-54
2020/12/03 07:38:35;;;;;;;10.05;2.83;;;19.10;50.00;;;;;;5037499;28;20025;-53
2020/12/03 07:41:01;;;;;;;8.77;2.40;;;19.10;49.80;;;;;;5037703;28;20088;-51
2020/12/03 07:43:36;;;;;;;4.75;2.20;;;19.20;49.80;;;;;;5037279;28;20467;-51
2020/12/03 07:46:22;;;;;;;5.88;2.22;;;19.10;49.80;;;;;;5037051;28;20025;-52
2020/12/03 07:48:47;;;;;;;9.73;2.40;;;19.20;49.90;;;;;;5036943;28;20088;-54
2020/12/03 07:51:17;;;;;;;4.32;2.83;;;19.20;49.80;;;;;;5037482;28;20072;-53
2020/12/03 07:53:43;;;;;;;6.65;4.32;;;19.20;49.70;;;;;;5037157;28;20424;-49
2020/12/03 07:56:26;;;;;;;4.38;2.80;;;19.20;49.10;;;;;;5037265;28;20032;-52
2020/12/03 07:58:53;;;;;;;13.02;2.70;;;19.20;48.90;;;;;;5037334;28;20033;-51
2020/12/03 08:01:36;;;;;;;8.93;2.40;;;19.20;49.20;;;;;;5037289;28;20079;-54
2020/12/03 08:04:08;;;;;;;6.25;2.22;;;19.20;49.90;;;;;;5037055;28;20030;-50
2020/12/03 08:06:38;;;;;;;4.05;2.13;;;19.20;49.20;;;;;;5033304;28;20022;-54
2020/12/03 08:09:04;;;;;;;4.55;2.13;;;19.30;49.30;;;;;;5026220;28;20030;-47
2020/12/03 08:11:41;;;;;;;5.45;2.38;;;19.30;49.30;;;;;;5023523;28;20036;-48
2020/12/03 08:14:28;;;;;;;3.05;1.75;;;19.40;49.30;;;;;;5034359;28;20037;-52
2020/12/03 08:16:55;;;;;;;6.35;2.10;;;19.40;49.30;;;;;;5036541;28;20041;-46
2020/12/03 08:19:29;;;;;;;3.65;2.22;;;19.40;49.20;;;;;;5036568;28;20407;-53
2020/12/03 08:21:56;;;;;;;5.30;2.10;;;19.50;49.30;;;;;;5036293;28;20045;-55
2020/12/03 08:24:25;;;;;;;8.05;2.33;;;19.50;49.30;;;;;;5037061;28;20033;-53
2020/12/03 08:27:16;;;;;;;5.30;1.73;;;19.50;49.20;;;;;;5036142;28;20056;-54
2020/12/03 08:29:42;;;;;;;3.13;2.25;;;19.50;49.30;;;;;;5036164;28;20441;-49
2020/12/03 08:32:07;;;;;;;3.70;2.15;;;19.50;49.30;;;;;;5036608;28;20025;-53
2020/12/03 08:34:34;;;;;;;6.88;1.88;;;19.50;49.20;;;;;;5036530;28;20033;-53
2020/12/03 08:37:00;;;;;;;2.28;1.83;;;19.50;49.20;;;;;;5036065;28;20033;-54
2020/12/03 08:39:26;;;;;;;9.10;2.20;;;19.50;49.20;;;;;;5036414;28;20028;-50
2020/12/03 08:41:53;;;;;;;3.33;2.00;;;19.60;49.20;;;;;;5036194;28;20018;-52
2020/12/03 08:44:19;;;;;;;3.78;1.77;;;19.60;49.30;;;;;;5036306;28;20025;-49
2020/12/03 08:46:45;;;;;;;3.88;1.80;;;19.60;49.30;;;;;;5036140;28;20028;-49
2020/12/03 08:49:20;;;;;;;3.55;1.77;;;19.60;49.30;;;;;;5036138;28;20057;-51
2020/12/03 08:51:54;;;;;;;3.05;1.73;;;19.60;49.30;;;;;;5036433;28;20344;-54
2020/12/03 08:54:27;;;;;;;7.38;2.00;;;19.60;49.30;;;;;;5036038;28;20025;-51
2020/12/03 08:56:57;;;;;;;8.40;1.83;;;19.60;49.20;;;;;;5036505;28;20087;-55
2020/12/03 08:59:28;;;;;;;7.70;2.03;;;19.60;49.30;;;;;;5035849;28;20025;-50
2020/12/03 09:02:06;;;;;;;3.80;1.48;;;19.60;49.20;;;;;;5036067;28;20097;-51
2020/12/03 09:04:36;;;;;;;2.05;1.65;;;19.60;49.20;;;;;;5036292;28;20097;-52
2020/12/03 09:07:08;;;;;;;5.35;2.25;;;19.60;49.30;;;;;;5036302;28;20049;-48
2020/12/03 09:09:37;;;;;;;7.82;2.45;;;19.60;49.30;;;;;;5018086;28;20433;-49
2020/12/03 09:12:06;;;;;;;5.40;1.95;;;19.60;49.30;;;;;;5036172;28;20029;-52
2020/12/03 09:14:35;;;;;;;9.43;1.83;;;19.60;49.30;;;;;;5035740;28;20025;-53
2020/12/03 09:17:07;;;;;;;3.42;2.05;;;19.70;49.40;;;;;;5035796;28;20026;-51
2020/12/03 09:19:33;;;;;;;3.40;1.73;;;19.60;49.40;;;;;;5035294;28;20029;-49
2020/12/03 09:22:01;;;;;;;6.38;1.73;;;19.70;49.40;;;;;;5035202;28;20087;-52
2020/12/03 09:24:27;;;;;;;2.50;1.55;;;19.70;49.40;;;;;;5035634;28;20071;-54
2020/12/03 09:26:58;;;;;;;5.50;1.80;;;19.70;49.40;;;;;;5035912;28;20411;-55
2020/12/03 09:29:24;;;;;;;4.90;1.60;;;19.70;49.30;;;;;;5035381;28;20065;-55
2020/12/03 09:31:57;;;;;;;3.83;1.48;;;19.70;49.20;;;;;;5035055;28;20053;-53
2020/12/03 09:34:23;;;;;;;5.17;1.50;;;19.80;49.30;;;;;;5035381;28;20021;-51
2020/12/03 09:36:48;;;;;;;2.20;1.40;;;19.80;49.20;;;;;;5035250;28;20086;-51
2020/12/03 09:39:14;;;;;;;5.82;1.83;;;19.80;49.20;;;;;;5035512;28;20191;-50
2020/12/03 09:41:42;;;;;;;3.50;1.35;;;19.80;49.10;;;;;;5035795;28;20040;-52
2020/12/03 09:44:12;;;;;;;3.05;1.65;;;19.80;49.00;;;;;;5035072;28;20105;-48
2020/12/03 09:46:40;;;;;;;4.78;2.20;;;19.90;49.10;;;;;;5034955;28;20029;-51
2020/12/03 09:49:11;;;;;;;2.63;1.90;;;19.80;48.80;;;;;;5035621;28;20053;-49
2020/12/03 09:51:37;;;;;;;4.55;2.13;;;19.90;49.10;;;;;;5034413;28;20514;-54
2020/12/03 09:54:03;;;;;;;3.63;1.55;;;19.90;49.30;;;;;;5033919;28;20384;-49
2020/12/03 09:56:35;;;;;;;2.55;1.55;;;19.80;49.30;;;;;;5034453;28;20032;-49
2020/12/03 09:59:02;;;;;;;7.47;1.60;;;19.80;49.50;;;;;;5034902;28;20116;-52
2020/12/03 10:02:08;;;;;;;4.05;1.80;;;19.90;49.80;;;;;;5034734;28;20353;-47
2020/12/03 10:04:53;;;;;;;4.22;1.65;;;19.90;50.00;;;;;;4936050;29;20336;-46
2020/12/03 10:08:04;;;;;;;3.97;1.27;;;19.80;50.10;;;;;;5031348;28;20037;-49
2020/12/03 10:10:52;;;;;;;8.30;2.75;;;19.80;50.20;;;;;;5034931;28;20404;-53
2020/12/03 10:13:58;;;;;;;3.67;1.40;;;19.80;50.20;;;;;;5034917;28;20021;-51
2020/12/03 10:16:27;;;;;;;2.38;1.80;;;19.80;50.20;;;;;;5035006;28;20456;-51
2020/12/03 10:18:55;;;;;;;6.63;1.55;;;19.80;50.30;;;;;;5017847;28;20352;-51
2020/12/03 10:21:26;;;;;;;2.20;1.45;;;19.90;50.50;;;;;;5034634;28;20053;-49
2020/12/03 10:24:13;;;;;;;2.63;1.30;;;19.90;50.60;;;;;;5034993;28;20029;-48
2020/12/03 10:26:51;;;;;;;8.00;2.13;;;20.00;50.80;;;;;;5034399;28;20103;-50
2020/12/03 10:29:37;;;;;;;4.57;1.35;;;20.00;50.80;;;;;;5034681;28;20067;-49
2020/12/03 10:32:09;;;;;;;2.55;1.27;;;20.00;50.60;;;;;;5034321;28;20036;-47
2020/12/03 10:34:45;;;;;;;2.33;1.30;;;20.00;50.40;;;;;;5037354;28;20026;-48
2020/12/03 10:37:23;;;;;;;2.38;1.45;;;20.10;50.20;;;;;;5038733;28;20033;-48
2020/12/03 10:39:58;;;;;;;2.75;1.50;;;20.10;50.00;;;;;;5038762;28;20148;-47
2020/12/03 10:42:31;;;;;;;2.20;1.58;;;20.20;49.90;;;;;;5038595;28;20031;-48
2020/12/03 10:45:08;;;;;;;1.73;1.20;;;20.10;49.80;;;;;;5038281;28;20036;-48
2020/12/03 10:47:48;;;;;;;1.80;1.33;;;20.20;49.70;;;;;;5038403;28;20272;-50
2020/12/03 10:50:16;;;;;;;2.65;1.45;;;20.20;49.60;;;;;;5038558;28;20049;-53
2020/12/03 10:52:44;;;;;;;1.90;1.42;;;20.20;49.60;;;;;;5038555;28;20037;-49
2020/12/03 10:55:15;;;;;;;3.65;1.30;;;20.20;49.40;;;;;;5038560;28;20021;-51
2020/12/03 10:57:45;;;;;;;3.78;1.40;;;20.10;49.40;;;;;;5038365;28;20053;-48
2020/12/03 11:00:11;;;;;;;2.28;1.20;;;20.20;49.30;;;;;;5038177;28;20037;-48
2020/12/03 11:02:42;;;;;;;3.38;1.20;;;20.20;49.30;;;;;;5038155;28;20032;-48
2020/12/03 11:05:09;;;;;;;1.92;1.65;;;20.20;49.20;;;;;;5038256;28;20448;-51
2020/12/03 11:07:37;;;;;;;2.30;1.35;;;20.20;49.20;;;;;;5038386;28;20326;-50
2020/12/03 11:10:03;;;;;;;3.53;1.20;;;20.20;49.10;;;;;;5037994;28;20026;-49
2020/12/03 11:12:30;;;;;;;4.78;1.65;;;20.20;49.10;;;;;;5037861;28;20033;-49
2020/12/03 11:15:05;;;;;;;1.85;1.15;;;20.20;49.10;;;;;;5038024;28;20028;-48
2020/12/03 11:17:31;;;;;;;2.47;1.42;;;20.20;49.00;;;;;;5038072;28;20022;-46
2020/12/03 11:19:59;;;;;;;1.58;1.05;;;20.10;48.90;;;;;;5038230;28;20341;-50
2020/12/03 11:22:54;;;;;;;1.30;1.10;;;20.10;48.90;;;;;;5037652;28;20463;-50
2020/12/03 11:25:27;;;;;;;1.58;1.20;;;20.20;49.00;;;;;;5037841;28;20025;-51
2020/12/03 11:27:54;;;;;;;1.75;1.30;;;20.10;48.90;;;;;;5037890;28;20048;-54
2020/12/03 11:30:23;;;;;;;2.10;1.75;;;20.10;48.90;;;;;;5037831;28;20126;-51
2020/12/03 11:32:57;;;;;;;1.73;1.40;;;20.10;48.80;;;;;;5037608;28;20025;-47
2020/12/03 11:35:31;;;;;;;3.20;1.20;;;20.10;48.90;;;;;;5037043;28;20526;-53
2020/12/03 11:37:59;;;;;;;4.43;1.30;;;20.10;48.90;;;;;;5037620;28;20022;-50
2020/12/03 11:44:19;;;;;;;1.58;1.40;;;20.00;48.90;;;;;;5037597;28;20030;-53
2020/12/03 11:46:37;;;;;;;2.05;1.30;;;20.00;48.80;;;;;;5020121;28;20033;-52
2020/12/03 11:49:03;;;;;;;1.98;1.35;;;20.10;48.70;;;;;;5036864;28;20128;-48
2020/12/03 11:51:33;;;;;;;1.50;1.30;;;20.00;48.70;;;;;;5037375;28;20033;-50
2020/12/03 11:54:01;;;;;;;1.52;1.35;;;20.00;48.60;;;;;;5037029;28;20068;-50
2020/12/03 11:56:30;;;;;;;1.77;1.60;;;20.00;48.60;;;;;;5037461;28;20029;-48
2020/12/03 11:59:12;;;;;;;2.72;1.52;;;20.00;48.60;;;;;;5037358;28;20030;-50
2020/12/03 12:01:38;;;;;;;3.28;1.45;;;20.10;48.60;;;;;;5037250;28;20083;-49
2020/12/03 12:04:08;;;;;;;2.42;1.40;;;20.00;48.50;;;;;;5036905;28;20353;-50
2020/12/03 12:06:44;;;;;;;2.67;1.20;;;20.00;48.50;;;;;;5036856;28;20025;-48
2020/12/03 12:09:15;;;;;;;2.45;1.00;;;20.00;48.40;;;;;;5037310;28;20436;-49
2020/12/03 12:11:45;;;;;;;1.98;1.15;;;20.00;48.40;;;;;;5036828;28;20236;-48
2020/12/03 12:14:10;;;;;;;2.15;1.40;;;20.00;48.40;;;;;;5036687;28;20456;-49
2020/12/03 12:16:36;;;;;;;2.30;1.45;;;20.00;48.60;;;;;;5036533;28;20029;-48
2020/12/03 12:19:02;;;;;;;3.38;1.13;;;20.00;48.90;;;;;;5036881;28;20025;-45
2020/12/03 12:21:31;;;;;;;1.85;1.20;;;20.00;49.20;;;;;;5036757;28;20034;-50
2020/12/03 12:23:56;;;;;;;3.78;1.30;;;19.90;49.40;;;;;;5036685;28;20026;-52
2020/12/03 12:26:22;;;;;;;3.05;1.15;;;19.90;49.60;;;;;;5036828;28;20035;-51
2020/12/03 12:28:47;;;;;;;3.97;1.08;;;19.90;49.70;;;;;;5036812;28;20482;-50
2020/12/03 12:31:16;;;;;;;2.33;1.20;;;19.90;49.80;;;;;;5036516;28;20033;-47
2020/12/03 12:33:41;;;;;;;3.92;1.25;;;19.90;49.90;;;;;;5036579;28;20028;-48
2020/12/03 12:36:07;;;;;;;5.10;1.20;;;19.90;50.00;;;;;;5035954;28;20100;-49
2020/12/03 12:38:32;;;;;;;4.97;1.10;;;19.90;50.20;;;;;;5035980;28;20482;-47
2020/12/03 12:40:58;;;;;;;2.83;1.33;;;19.90;50.20;;;;;;5036294;28;20117;-50
2020/12/03 12:43:24;;;;;;;2.58;0.90;;;19.90;50.30;;;;;;5035966;28;20022;-47
2020/12/03 12:45:49;;;;;;;6.22;1.20;;;20.00;50.40;;;;;;5035870;28;20048;-47
2020/12/03 12:48:15;;;;;;;3.00;1.40;;;20.00;50.60;;;;;;5036245;28;20098;-48
2020/12/03 12:50:40;;;;;;;2.90;1.23;;;20.00;50.70;;;;;;5036692;28;20049;-48
2020/12/03 12:53:06;;;;;;;5.07;1.77;;;20.00;50.30;;;;;;5036300;28;20021;-46
2020/12/03 12:55:33;;;;;;;3.72;1.52;;;20.00;49.90;;;;;;5035860;28;20060;-47
2020/12/03 12:57:59;;;;;;;2.78;1.65;;;20.00;49.70;;;;;;5035447;28;20163;-47
2020/12/03 13:00:24;;;;;;;2.67;1.40;;;20.00;49.60;;;;;;5036351;28;20112;-48
2020/12/03 13:02:50;;;;;;;2.45;1.38;;;20.00;49.40;;;;;;5036026;28;20100;-49
2020/12/03 13:05:15;;;;;;;3.58;1.38;;;20.00;49.30;;;;;;5036025;28;20028;-49
2020/12/03 13:07:41;;;;;;;10.10;1.52;;;20.10;49.30;;;;;;5036062;28;20053;-48
2020/12/03 13:10:06;;;;;;;2.30;1.40;;;20.10;49.30;;;;;;5035768;28;20112;-47
2020/12/03 13:12:32;;;;;;;4.00;1.42;;;20.10;49.10;;;;;;5035825;28;20051;-47
2020/12/03 13:14:57;;;;;;;1.92;1.27;;;20.10;49.00;;;;;;5036176;28;20033;-47
2020/12/03 13:17:23;;;;;;;3.28;1.40;;;20.10;48.90;;;;;;5035931;28;20014;-47